TVS31R LKPR-LGIR
Flight info
| Callsign | TVS31R |
|---|---|
| Flight time | 2h 19m |
| Altitude | 37000 |
| Route | VOZ DCT PISAM DCT SASAL DCT VEBAL DCT ENFAR DCT BITLA DCT KOGIS DCT KEA UL607 GIVIS T514 XAVIS |
| Aircraft | B38M/M-SDE3FGHIJ1J3J4J7M3P2RWXY/LB1D1 |
Departure
| Time | 2026-05-05 11:52 |
|---|---|
| Airport | Václav Havel Airport Prague (LKPR) |
Arrival
| Time | 2026-05-05 14:12 |
|---|---|
| Airport | Heraklion International Nikos Kazantzakis Airport (LGIR) |
| Time | Latitude | Longitude | Altitude | Speed | Heading |
|---|---|---|---|---|---|
| 2026-05-05 11:19 | 50.10364 | 14.26741 | 1173 ft | 0 kts | 34° |
| 2026-05-05 11:44 | 50.10354 | 14.26731 | 1172 ft | 4 kts | 33° |
| 2026-05-05 11:44 | 50.10333 | 14.26716 | 1173 ft | 4 kts | 350° |
| 2026-05-05 11:44 | 50.10325 | 14.26722 | 1173 ft | 1 kts | 304° |
| 2026-05-05 11:47 | 50.10328 | 14.26715 | 1174 ft | 3 kts | 304° |
| 2026-05-05 11:47 | 50.10348 | 14.26667 | 1173 ft | 6 kts | 291° |
| 2026-05-05 11:47 | 50.10332 | 14.26606 | 1174 ft | 7 kts | 220° |
| 2026-05-05 11:48 | 50.10228 | 14.26546 | 1177 ft | 10 kts | 143° |
| 2026-05-05 11:48 | 50.10181 | 14.26635 | 1178 ft | 15 kts | 127° |
| 2026-05-05 11:48 | 50.10105 | 14.26792 | 1186 ft | 21 kts | 127° |
| 2026-05-05 11:49 | 50.10014 | 14.26980 | 1198 ft | 22 kts | 127° |
| 2026-05-05 11:49 | 50.09922 | 14.27171 | 1203 ft | 21 kts | 126° |
| 2026-05-05 11:49 | 50.09829 | 14.27347 | 1206 ft | 21 kts | 135° |
| 2026-05-05 11:49 | 50.09729 | 14.27502 | 1208 ft | 20 kts | 135° |
| 2026-05-05 11:50 | 50.09630 | 14.27655 | 1212 ft | 19 kts | 135° |
| 2026-05-05 11:50 | 50.09527 | 14.27813 | 1215 ft | 23 kts | 135° |
| 2026-05-05 11:50 | 50.09414 | 14.27986 | 1218 ft | 23 kts | 135° |
| 2026-05-05 11:50 | 50.09302 | 14.28157 | 1217 ft | 19 kts | 135° |
| 2026-05-05 11:51 | 50.09201 | 14.28281 | 1214 ft | 18 kts | 168° |
| 2026-05-05 11:51 | 50.09101 | 14.28212 | 1213 ft | 14 kts | 217° |
| 2026-05-05 11:51 | 50.09081 | 14.28092 | 1210 ft | 15 kts | 302° |
| 2026-05-05 11:51 | 50.09228 | 14.27786 | 1214 ft | 67 kts | 307° |
| 2026-05-05 11:52 | 50.09640 | 14.26933 | 1209 ft | 128 kts | 307° |
| 2026-05-05 11:52 | 50.10284 | 14.25602 | 1192 ft | 177 kts | 307° |
| 2026-05-05 11:52 | 50.11055 | 14.24021 | 1650 ft | 187 kts | 310° |
| 2026-05-05 11:52 | 50.11845 | 14.22414 | 2358 ft | 189 kts | 310° |
| 2026-05-05 11:53 | 50.12650 | 14.20760 | 3054 ft | 197 kts | 309° |
| 2026-05-05 11:53 | 50.13486 | 14.18992 | 3754 ft | 208 kts | 306° |
| 2026-05-05 11:53 | 50.13986 | 14.16836 | 4434 ft | 221 kts | 272° |
| 2026-05-05 11:53 | 50.13635 | 14.14501 | 5201 ft | 227 kts | 239° |
| 2026-05-05 11:54 | 50.12631 | 14.12578 | 6000 ft | 233 kts | 225° |
| 2026-05-05 11:54 | 50.11460 | 14.10735 | 6757 ft | 245 kts | 224° |
| 2026-05-05 11:54 | 50.09991 | 14.09342 | 7453 ft | 253 kts | 191° |
| 2026-05-05 11:54 | 50.08222 | 14.09528 | 8232 ft | 267 kts | 160° |
| 2026-05-05 11:55 | 50.06659 | 14.11131 | 9030 ft | 277 kts | 138° |
| 2026-05-05 11:55 | 50.05271 | 14.13265 | 9820 ft | 283 kts | 139° |
| 2026-05-05 11:55 | 50.03825 | 14.15389 | 10571 ft | 288 kts | 139° |
| 2026-05-05 11:55 | 50.02369 | 14.17504 | 11345 ft | 291 kts | 139° |
| 2026-05-05 11:56 | 50.00874 | 14.19674 | 12126 ft | 297 kts | 139° |
| 2026-05-05 11:56 | 49.99350 | 14.21871 | 12906 ft | 301 kts | 140° |
| 2026-05-05 11:56 | 49.97797 | 14.24107 | 13666 ft | 306 kts | 140° |
| 2026-05-05 11:56 | 49.96195 | 14.26401 | 14098 ft | 322 kts | 140° |
| 2026-05-05 11:57 | 49.94486 | 14.28822 | 14360 ft | 342 kts | 140° |
| 2026-05-05 11:57 | 49.92653 | 14.31287 | 14742 ft | 355 kts | 147° |
| 2026-05-05 11:57 | 49.90490 | 14.33196 | 15299 ft | 360 kts | 154° |
| 2026-05-05 11:57 | 49.88267 | 14.35077 | 15909 ft | 366 kts | 153° |
| 2026-05-05 11:58 | 49.86786 | 14.36344 | 16362 ft | 368 kts | 153° |
| 2026-05-05 11:58 | 49.84529 | 14.38284 | 17057 ft | 372 kts | 153° |
| 2026-05-05 11:58 | 49.82258 | 14.40245 | 17712 ft | 375 kts | 153° |
| 2026-05-05 11:58 | 49.79220 | 14.42870 | 18518 ft | 380 kts | 153° |
| 2026-05-05 11:59 | 49.77656 | 14.44222 | 18892 ft | 382 kts | 153° |
| 2026-05-05 11:59 | 49.75319 | 14.46238 | 19454 ft | 386 kts | 153° |
| 2026-05-05 11:59 | 49.72967 | 14.48265 | 19984 ft | 389 kts | 153° |
| 2026-05-05 11:59 | 49.70588 | 14.50312 | 20510 ft | 392 kts | 153° |
| 2026-05-05 12:00 | 49.68226 | 14.52344 | 21050 ft | 396 kts | 153° |
| 2026-05-05 12:00 | 49.65812 | 14.54418 | 21551 ft | 399 kts | 153° |
| 2026-05-05 12:00 | 49.63372 | 14.56510 | 22061 ft | 402 kts | 153° |
| 2026-05-05 12:00 | 49.60910 | 14.58620 | 22549 ft | 406 kts | 153° |
| 2026-05-05 12:01 | 49.58430 | 14.60743 | 23039 ft | 409 kts | 153° |
| 2026-05-05 12:01 | 49.55929 | 14.62882 | 23499 ft | 413 kts | 153° |
| 2026-05-05 12:01 | 49.53408 | 14.65034 | 23901 ft | 415 kts | 153° |
| 2026-05-05 12:01 | 49.50866 | 14.67202 | 24330 ft | 418 kts | 153° |
| 2026-05-05 12:02 | 49.48312 | 14.69377 | 24737 ft | 420 kts | 153° |
| 2026-05-05 12:02 | 49.45777 | 14.71535 | 25142 ft | 423 kts | 153° |
| 2026-05-05 12:02 | 49.43194 | 14.73730 | 25532 ft | 425 kts | 153° |
| 2026-05-05 12:02 | 49.40598 | 14.75933 | 25917 ft | 427 kts | 153° |
| 2026-05-05 12:03 | 49.37984 | 14.78150 | 26320 ft | 430 kts | 153° |
| 2026-05-05 12:03 | 49.35362 | 14.80370 | 26699 ft | 432 kts | 153° |
| 2026-05-05 12:03 | 49.32716 | 14.82607 | 27078 ft | 434 kts | 153° |
| 2026-05-05 12:03 | 49.30065 | 14.84846 | 27448 ft | 437 kts | 153° |
| 2026-05-05 12:04 | 49.27391 | 14.87102 | 27810 ft | 439 kts | 153° |
| 2026-05-05 12:04 | 49.24707 | 14.89362 | 28168 ft | 441 kts | 153° |
| 2026-05-05 12:04 | 49.22009 | 14.91633 | 28523 ft | 444 kts | 153° |
| 2026-05-05 12:04 | 49.19297 | 14.93913 | 28866 ft | 446 kts | 153° |
| 2026-05-05 12:05 | 49.16574 | 14.96197 | 29206 ft | 448 kts | 153° |
| 2026-05-05 12:05 | 49.13834 | 14.98495 | 29533 ft | 450 kts | 153° |
| 2026-05-05 12:05 | 49.11083 | 15.00798 | 29843 ft | 453 kts | 153° |
| 2026-05-05 12:05 | 49.08343 | 15.03088 | 30124 ft | 455 kts | 153° |
| 2026-05-05 12:06 | 49.05561 | 15.05411 | 30392 ft | 457 kts | 153° |
| 2026-05-05 12:06 | 49.02765 | 15.07743 | 30653 ft | 459 kts | 153° |
| 2026-05-05 12:06 | 48.99959 | 15.10080 | 30923 ft | 461 kts | 153° |
| 2026-05-05 12:06 | 48.97143 | 15.12423 | 31239 ft | 461 kts | 153° |
| 2026-05-05 12:07 | 48.94328 | 15.14761 | 31610 ft | 461 kts | 153° |
| 2026-05-05 12:07 | 48.91509 | 15.17099 | 31970 ft | 460 kts | 153° |
| 2026-05-05 12:07 | 48.88705 | 15.19422 | 32332 ft | 459 kts | 153° |
| 2026-05-05 12:07 | 48.85900 | 15.21743 | 32710 ft | 458 kts | 153° |
| 2026-05-05 12:08 | 48.83136 | 15.24028 | 33067 ft | 458 kts | 154° |
| 2026-05-05 12:08 | 48.80340 | 15.26335 | 33417 ft | 457 kts | 154° |
| 2026-05-05 12:08 | 48.77551 | 15.28634 | 33769 ft | 456 kts | 154° |
| 2026-05-05 12:08 | 48.74757 | 15.30934 | 34065 ft | 456 kts | 154° |
| 2026-05-05 12:09 | 48.71975 | 15.33221 | 34356 ft | 455 kts | 154° |
| 2026-05-05 12:09 | 48.69188 | 15.35511 | 34628 ft | 455 kts | 154° |
| 2026-05-05 12:09 | 48.66405 | 15.37792 | 34903 ft | 454 kts | 154° |
| 2026-05-05 12:09 | 48.63626 | 15.40069 | 35169 ft | 454 kts | 154° |
| 2026-05-05 12:10 | 48.60843 | 15.42346 | 35432 ft | 454 kts | 154° |
| 2026-05-05 12:10 | 48.58068 | 15.44613 | 35687 ft | 453 kts | 154° |
| 2026-05-05 12:10 | 48.55296 | 15.46875 | 35930 ft | 453 kts | 154° |
| 2026-05-05 12:10 | 48.52523 | 15.49135 | 36166 ft | 453 kts | 154° |
| 2026-05-05 12:11 | 48.49748 | 15.51393 | 36401 ft | 452 kts | 154° |
| 2026-05-05 12:11 | 48.46975 | 15.53647 | 36622 ft | 452 kts | 154° |
| 2026-05-05 12:11 | 48.44241 | 15.55868 | 36796 ft | 452 kts | 154° |
| 2026-05-05 12:11 | 48.41469 | 15.58117 | 36820 ft | 453 kts | 154° |
| 2026-05-05 12:12 | 48.35927 | 15.62601 | 36819 ft | 451 kts | 154° |
| 2026-05-05 12:12 | 48.30391 | 15.67072 | 36806 ft | 451 kts | 154° |
| 2026-05-05 12:13 | 48.24851 | 15.71534 | 36803 ft | 451 kts | 154° |
| 2026-05-05 12:13 | 48.19319 | 15.75979 | 36804 ft | 451 kts | 154° |
| 2026-05-05 12:14 | 48.13802 | 15.80400 | 36808 ft | 452 kts | 154° |
| 2026-05-05 12:14 | 48.08259 | 15.84832 | 36802 ft | 451 kts | 155° |
| 2026-05-05 12:15 | 48.02713 | 15.89255 | 36806 ft | 452 kts | 155° |
| 2026-05-05 12:15 | 47.97164 | 15.93671 | 36810 ft | 452 kts | 155° |
| 2026-05-05 12:16 | 47.91596 | 15.98089 | 36829 ft | 453 kts | 155° |
| 2026-05-05 12:16 | 47.86027 | 16.02498 | 36824 ft | 453 kts | 155° |
| 2026-05-05 12:17 | 47.80496 | 16.06867 | 36832 ft | 453 kts | 155° |
| 2026-05-05 12:17 | 47.74925 | 16.11255 | 36833 ft | 453 kts | 155° |
| 2026-05-05 12:18 | 47.69354 | 16.15634 | 36839 ft | 453 kts | 155° |
| 2026-05-05 12:18 | 47.63783 | 16.20001 | 36842 ft | 453 kts | 155° |
| 2026-05-05 12:19 | 47.58203 | 16.24366 | 36849 ft | 453 kts | 155° |
| 2026-05-05 12:19 | 47.52645 | 16.28702 | 36852 ft | 454 kts | 155° |
| 2026-05-05 12:20 | 47.47046 | 16.33059 | 36862 ft | 454 kts | 156° |
| 2026-05-05 12:20 | 47.41442 | 16.37411 | 36863 ft | 454 kts | 155° |
| 2026-05-05 12:21 | 47.35867 | 16.41729 | 36875 ft | 455 kts | 155° |
| 2026-05-05 12:21 | 47.30257 | 16.46063 | 36882 ft | 455 kts | 155° |
| 2026-05-05 12:22 | 47.24500 | 16.49890 | 36895 ft | 454 kts | 160° |
| 2026-05-05 12:22 | 47.18718 | 16.53628 | 36894 ft | 454 kts | 159° |
| 2026-05-05 12:23 | 47.12966 | 16.57370 | 36902 ft | 454 kts | 159° |
| 2026-05-05 12:23 | 47.07186 | 16.61122 | 36908 ft | 455 kts | 159° |
| 2026-05-05 12:24 | 47.01394 | 16.64874 | 36915 ft | 455 kts | 159° |
| 2026-05-05 12:24 | 46.95598 | 16.68619 | 36918 ft | 455 kts | 159° |
| 2026-05-05 12:25 | 46.89798 | 16.72358 | 36927 ft | 455 kts | 159° |
| 2026-05-05 12:25 | 46.84002 | 16.76085 | 36936 ft | 455 kts | 159° |
| 2026-05-05 12:26 | 46.78196 | 16.79810 | 36945 ft | 456 kts | 159° |
| 2026-05-05 12:26 | 46.72380 | 16.83531 | 36958 ft | 456 kts | 159° |
| 2026-05-05 12:27 | 46.66568 | 16.87243 | 36958 ft | 456 kts | 159° |
| 2026-05-05 12:27 | 46.60790 | 16.90924 | 36962 ft | 456 kts | 159° |
| 2026-05-05 12:28 | 46.54970 | 16.94622 | 36961 ft | 456 kts | 159° |
| 2026-05-05 12:28 | 46.49161 | 16.98305 | 36967 ft | 456 kts | 159° |
| 2026-05-05 12:29 | 46.43340 | 17.01987 | 36964 ft | 456 kts | 159° |
| 2026-05-05 12:29 | 46.37529 | 17.05655 | 36963 ft | 456 kts | 159° |
| 2026-05-05 12:30 | 46.31747 | 17.09294 | 36961 ft | 456 kts | 159° |
| 2026-05-05 12:30 | 46.25923 | 17.12953 | 36970 ft | 456 kts | 159° |
| 2026-05-05 12:31 | 46.20105 | 17.16599 | 36964 ft | 456 kts | 159° |
| 2026-05-05 12:31 | 46.14286 | 17.20237 | 36964 ft | 456 kts | 159° |
| 2026-05-05 12:32 | 46.08453 | 17.23877 | 36965 ft | 456 kts | 159° |
| 2026-05-05 12:32 | 46.02616 | 17.27512 | 36967 ft | 457 kts | 159° |
| 2026-05-05 12:33 | 45.96942 | 17.31529 | 36977 ft | 459 kts | 153° |
| 2026-05-05 12:33 | 45.91383 | 17.36120 | 36966 ft | 461 kts | 152° |
| 2026-05-05 12:34 | 45.85828 | 17.40725 | 36963 ft | 461 kts | 152° |
| 2026-05-05 12:34 | 45.80271 | 17.45323 | 36966 ft | 461 kts | 152° |
| 2026-05-05 12:35 | 45.74714 | 17.49911 | 36971 ft | 461 kts | 152° |
| 2026-05-05 12:35 | 45.69144 | 17.54500 | 36971 ft | 461 kts | 152° |
| 2026-05-05 12:36 | 45.63607 | 17.59049 | 36969 ft | 461 kts | 153° |
| 2026-05-05 12:36 | 45.58037 | 17.63615 | 36971 ft | 462 kts | 153° |
| 2026-05-05 12:37 | 45.52452 | 17.68184 | 36963 ft | 462 kts | 152° |
| 2026-05-05 12:37 | 45.46872 | 17.72737 | 36974 ft | 462 kts | 153° |
| 2026-05-05 12:38 | 45.41284 | 17.77287 | 36970 ft | 463 kts | 153° |
| 2026-05-05 12:38 | 45.35695 | 17.81827 | 36967 ft | 463 kts | 153° |
| 2026-05-05 12:39 | 45.30127 | 17.86340 | 36963 ft | 463 kts | 153° |
| 2026-05-05 12:39 | 45.24519 | 17.90874 | 36962 ft | 463 kts | 153° |
| 2026-05-05 12:40 | 45.18910 | 17.95399 | 36960 ft | 464 kts | 153° |
| 2026-05-05 12:40 | 45.13301 | 17.99915 | 36966 ft | 464 kts | 153° |
| 2026-05-05 12:41 | 45.07676 | 18.04432 | 36967 ft | 464 kts | 153° |
| 2026-05-05 12:41 | 45.02049 | 18.08940 | 36959 ft | 465 kts | 153° |
| 2026-05-05 12:42 | 44.96455 | 18.13411 | 36968 ft | 465 kts | 153° |
| 2026-05-05 12:42 | 44.90816 | 18.17909 | 36964 ft | 465 kts | 153° |
| 2026-05-05 12:43 | 44.85179 | 18.22395 | 36969 ft | 465 kts | 153° |
| 2026-05-05 12:43 | 44.79528 | 18.26882 | 36966 ft | 466 kts | 153° |
| 2026-05-05 12:44 | 44.73875 | 18.31360 | 36967 ft | 466 kts | 153° |
| 2026-05-05 12:44 | 44.68240 | 18.35814 | 36965 ft | 467 kts | 153° |
| 2026-05-05 12:45 | 44.62567 | 18.40288 | 36973 ft | 467 kts | 153° |
| 2026-05-05 12:45 | 44.56893 | 18.44752 | 36965 ft | 467 kts | 153° |
| 2026-05-05 12:46 | 44.51210 | 18.49214 | 36968 ft | 468 kts | 154° |
| 2026-05-05 12:46 | 44.45520 | 18.53671 | 36968 ft | 468 kts | 154° |
| 2026-05-05 12:47 | 44.40788 | 18.57370 | 36969 ft | 469 kts | 154° |
| 2026-05-05 12:47 | 44.34156 | 18.62542 | 36972 ft | 470 kts | 154° |
| 2026-05-05 12:48 | 44.29398 | 18.66245 | 36968 ft | 470 kts | 154° |
| 2026-05-05 12:48 | 44.23672 | 18.70691 | 36979 ft | 471 kts | 154° |
| 2026-05-05 12:49 | 44.17932 | 18.75139 | 36985 ft | 471 kts | 154° |
| 2026-05-05 12:49 | 44.12194 | 18.79575 | 36998 ft | 471 kts | 154° |
| 2026-05-05 12:50 | 44.10295 | 18.81040 | 37003 ft | 472 kts | 154° |
| 2026-05-05 12:50 | 44.05032 | 18.85097 | 37008 ft | 472 kts | 154° |
| 2026-05-05 12:51 | 43.99281 | 18.89521 | 37004 ft | 473 kts | 154° |
| 2026-05-05 12:51 | 43.93563 | 18.93909 | 37008 ft | 473 kts | 154° |
| 2026-05-05 12:52 | 43.87794 | 18.98327 | 37004 ft | 473 kts | 154° |
| 2026-05-05 12:52 | 43.82024 | 19.02737 | 37012 ft | 474 kts | 154° |
| 2026-05-05 12:53 | 43.76244 | 19.07143 | 37014 ft | 474 kts | 154° |
| 2026-05-05 12:53 | 43.70453 | 19.11548 | 37015 ft | 475 kts | 154° |
| 2026-05-05 12:54 | 43.61802 | 19.18110 | 37008 ft | 475 kts | 154° |
| 2026-05-05 12:55 | 43.55955 | 19.22533 | 37016 ft | 477 kts | 154° |
| 2026-05-05 12:55 | 43.50133 | 19.26929 | 37008 ft | 477 kts | 154° |
| 2026-05-05 12:56 | 43.44340 | 19.31291 | 37019 ft | 478 kts | 154° |
| 2026-05-05 12:56 | 43.38490 | 19.35687 | 37022 ft | 478 kts | 154° |
| 2026-05-05 12:57 | 43.32655 | 19.40062 | 37026 ft | 479 kts | 154° |
| 2026-05-05 12:57 | 43.26793 | 19.44447 | 37032 ft | 479 kts | 154° |
| 2026-05-05 12:58 | 43.20963 | 19.48799 | 37041 ft | 480 kts | 154° |
| 2026-05-05 12:58 | 43.15076 | 19.53185 | 37036 ft | 480 kts | 154° |
| 2026-05-05 12:59 | 43.09191 | 19.57558 | 37040 ft | 481 kts | 154° |
| 2026-05-05 12:59 | 43.03301 | 19.61926 | 37053 ft | 482 kts | 154° |
| 2026-05-05 13:00 | 42.94492 | 19.68441 | 37051 ft | 482 kts | 155° |
| 2026-05-05 13:01 | 42.82671 | 19.77149 | 37070 ft | 483 kts | 155° |
| 2026-05-05 13:01 | 42.76760 | 19.81490 | 37076 ft | 482 kts | 155° |
| 2026-05-05 13:02 | 42.70825 | 19.85838 | 37065 ft | 484 kts | 155° |
| 2026-05-05 13:02 | 42.64925 | 19.90152 | 37080 ft | 485 kts | 155° |
| 2026-05-05 13:03 | 42.58970 | 19.94495 | 37102 ft | 486 kts | 155° |
| 2026-05-05 13:03 | 42.52996 | 19.98844 | 37080 ft | 486 kts | 155° |
| 2026-05-05 13:04 | 42.47022 | 20.03183 | 37084 ft | 487 kts | 155° |
| 2026-05-05 13:04 | 42.41087 | 20.07484 | 37062 ft | 487 kts | 155° |
| 2026-05-05 13:05 | 42.35097 | 20.11816 | 37064 ft | 488 kts | 156° |
| 2026-05-05 13:05 | 42.29097 | 20.16145 | 37074 ft | 489 kts | 156° |
| 2026-05-05 13:06 | 42.23087 | 20.20472 | 37070 ft | 490 kts | 156° |
| 2026-05-05 13:06 | 42.17065 | 20.24801 | 37080 ft | 491 kts | 156° |
| 2026-05-05 13:07 | 42.11028 | 20.29129 | 37074 ft | 491 kts | 156° |
| 2026-05-05 13:07 | 42.05026 | 20.33425 | 37072 ft | 492 kts | 156° |
| 2026-05-05 13:08 | 41.98973 | 20.37748 | 37094 ft | 492 kts | 156° |
| 2026-05-05 13:08 | 41.92920 | 20.42061 | 37088 ft | 492 kts | 156° |
| 2026-05-05 13:09 | 41.86863 | 20.46367 | 37076 ft | 493 kts | 156° |
| 2026-05-05 13:09 | 41.80796 | 20.50673 | 37074 ft | 493 kts | 156° |
| 2026-05-05 13:10 | 41.74866 | 20.55355 | 37064 ft | 496 kts | 148° |
| 2026-05-05 13:10 | 41.69183 | 20.60640 | 37088 ft | 499 kts | 148° |
| 2026-05-05 13:11 | 41.63533 | 20.65916 | 37088 ft | 499 kts | 148° |
| 2026-05-05 13:11 | 41.57833 | 20.71228 | 37065 ft | 499 kts | 148° |
| 2026-05-05 13:12 | 41.52126 | 20.76538 | 37070 ft | 500 kts | 148° |
| 2026-05-05 13:12 | 41.46414 | 20.81840 | 37078 ft | 500 kts | 148° |
| 2026-05-05 13:13 | 41.40686 | 20.87145 | 37071 ft | 500 kts | 148° |
| 2026-05-05 13:13 | 41.34959 | 20.92438 | 37085 ft | 501 kts | 148° |
| 2026-05-05 13:14 | 41.29265 | 20.97689 | 37082 ft | 501 kts | 148° |
| 2026-05-05 13:14 | 41.23507 | 21.02985 | 37073 ft | 502 kts | 148° |
| 2026-05-05 13:15 | 41.17753 | 21.08269 | 37087 ft | 503 kts | 148° |
| 2026-05-05 13:15 | 41.12028 | 21.13513 | 37072 ft | 503 kts | 147° |
| 2026-05-05 13:16 | 41.06262 | 21.18784 | 37078 ft | 503 kts | 147° |
| 2026-05-05 13:16 | 41.00490 | 21.24048 | 37043 ft | 503 kts | 148° |
| 2026-05-05 13:17 | 40.94708 | 21.29312 | 37046 ft | 504 kts | 147° |
| 2026-05-05 13:17 | 40.88961 | 21.34534 | 37071 ft | 504 kts | 148° |
| 2026-05-05 13:18 | 40.83059 | 21.39588 | 37070 ft | 504 kts | 149° |
| 2026-05-05 13:18 | 40.77178 | 21.44617 | 37069 ft | 504 kts | 149° |
| 2026-05-05 13:19 | 40.71335 | 21.49607 | 37071 ft | 504 kts | 149° |
| 2026-05-05 13:19 | 40.65442 | 21.54629 | 37063 ft | 504 kts | 149° |
| 2026-05-05 13:20 | 40.59551 | 21.59639 | 37070 ft | 504 kts | 149° |
| 2026-05-05 13:20 | 40.53656 | 21.64641 | 37081 ft | 504 kts | 149° |
| 2026-05-05 13:21 | 40.47755 | 21.69639 | 37089 ft | 504 kts | 149° |
| 2026-05-05 13:21 | 40.41851 | 21.74627 | 37090 ft | 504 kts | 149° |
| 2026-05-05 13:22 | 40.35986 | 21.79573 | 37108 ft | 505 kts | 149° |
| 2026-05-05 13:22 | 40.30073 | 21.84549 | 37101 ft | 504 kts | 149° |
| 2026-05-05 13:23 | 40.24159 | 21.89515 | 37103 ft | 505 kts | 149° |
| 2026-05-05 13:23 | 40.18246 | 21.94470 | 37101 ft | 505 kts | 149° |
| 2026-05-05 13:24 | 40.12335 | 21.99457 | 37084 ft | 505 kts | 145° |
| 2026-05-05 13:24 | 40.06688 | 22.04840 | 37081 ft | 506 kts | 145° |
| 2026-05-05 13:25 | 40.00956 | 22.10217 | 37056 ft | 506 kts | 145° |
| 2026-05-05 13:25 | 39.95237 | 22.15561 | 37052 ft | 506 kts | 145° |
| 2026-05-05 13:26 | 39.89503 | 22.20906 | 37049 ft | 506 kts | 145° |
| 2026-05-05 13:26 | 39.83773 | 22.26237 | 37045 ft | 506 kts | 145° |
| 2026-05-05 13:27 | 39.78035 | 22.31564 | 37042 ft | 506 kts | 145° |
| 2026-05-05 13:27 | 39.72338 | 22.36842 | 37035 ft | 507 kts | 145° |
| 2026-05-05 13:28 | 39.66591 | 22.42155 | 37032 ft | 507 kts | 145° |
| 2026-05-05 13:28 | 39.60840 | 22.47461 | 37037 ft | 507 kts | 145° |
| 2026-05-05 13:29 | 39.55089 | 22.52757 | 37035 ft | 507 kts | 145° |
| 2026-05-05 13:29 | 39.49319 | 22.58058 | 37039 ft | 507 kts | 145° |
| 2026-05-05 13:30 | 39.43600 | 22.63302 | 37041 ft | 507 kts | 145° |
| 2026-05-05 13:30 | 39.37832 | 22.68579 | 37041 ft | 507 kts | 145° |
| 2026-05-05 13:31 | 39.32075 | 22.73836 | 37046 ft | 507 kts | 145° |
| 2026-05-05 13:31 | 39.26307 | 22.79093 | 37021 ft | 507 kts | 145° |
| 2026-05-05 13:32 | 39.20538 | 22.84339 | 37019 ft | 507 kts | 145° |
| 2026-05-05 13:32 | 39.14766 | 22.89577 | 37023 ft | 507 kts | 146° |
| 2026-05-05 13:33 | 39.09024 | 22.94777 | 37030 ft | 507 kts | 146° |
| 2026-05-05 13:33 | 39.03230 | 23.00014 | 37022 ft | 508 kts | 146° |
| 2026-05-05 13:34 | 38.97443 | 23.05234 | 37035 ft | 508 kts | 146° |
| 2026-05-05 13:34 | 38.91653 | 23.10445 | 37052 ft | 508 kts | 146° |
| 2026-05-05 13:35 | 38.85852 | 23.15657 | 37043 ft | 509 kts | 146° |
| 2026-05-05 13:35 | 38.80041 | 23.20866 | 37053 ft | 509 kts | 146° |
| 2026-05-05 13:36 | 38.75219 | 23.25181 | 37047 ft | 509 kts | 146° |
| 2026-05-05 13:36 | 38.69403 | 23.30375 | 37046 ft | 509 kts | 146° |
| 2026-05-05 13:37 | 38.63589 | 23.35558 | 37054 ft | 509 kts | 146° |
| 2026-05-05 13:37 | 38.57771 | 23.40733 | 37057 ft | 509 kts | 146° |
| 2026-05-05 13:38 | 38.51948 | 23.45903 | 37053 ft | 509 kts | 146° |
| 2026-05-05 13:38 | 38.46160 | 23.51031 | 37052 ft | 510 kts | 146° |
| 2026-05-05 13:39 | 38.40330 | 23.56187 | 37051 ft | 510 kts | 146° |
| 2026-05-05 13:39 | 38.34497 | 23.61334 | 37054 ft | 510 kts | 146° |
| 2026-05-05 13:40 | 38.28657 | 23.66477 | 37049 ft | 510 kts | 146° |
| 2026-05-05 13:40 | 38.22823 | 23.71605 | 37056 ft | 510 kts | 146° |
| 2026-05-05 13:41 | 38.16986 | 23.76725 | 37047 ft | 510 kts | 146° |
| 2026-05-05 13:41 | 38.11129 | 23.81853 | 37052 ft | 510 kts | 146° |
| 2026-05-05 13:42 | 38.05284 | 23.86960 | 37045 ft | 509 kts | 146° |
| 2026-05-05 13:42 | 37.99475 | 23.92026 | 37043 ft | 510 kts | 146° |
| 2026-05-05 13:43 | 37.93634 | 23.97109 | 37050 ft | 509 kts | 146° |
| 2026-05-05 13:43 | 37.87776 | 24.02198 | 37047 ft | 509 kts | 146° |
| 2026-05-05 13:44 | 37.81925 | 24.07270 | 37048 ft | 510 kts | 146° |
| 2026-05-05 13:44 | 37.76075 | 24.12333 | 37056 ft | 510 kts | 146° |
| 2026-05-05 13:45 | 37.70220 | 24.17391 | 37060 ft | 510 kts | 146° |
| 2026-05-05 13:45 | 37.64560 | 24.22271 | 37062 ft | 510 kts | 146° |
| 2026-05-05 13:46 | 37.59282 | 24.26815 | 37067 ft | 510 kts | 147° |
| 2026-05-05 13:46 | 37.53322 | 24.31677 | 37060 ft | 510 kts | 149° |
| 2026-05-05 13:47 | 37.47286 | 24.36409 | 37074 ft | 510 kts | 149° |
| 2026-05-05 13:47 | 37.41265 | 24.41146 | 37071 ft | 511 kts | 149° |
| 2026-05-05 13:48 | 37.35237 | 24.45881 | 37068 ft | 511 kts | 149° |
| 2026-05-05 13:48 | 37.29211 | 24.50606 | 37072 ft | 510 kts | 149° |
| 2026-05-05 13:49 | 37.23228 | 24.55287 | 37070 ft | 510 kts | 149° |
| 2026-05-05 13:49 | 37.17198 | 24.59997 | 37071 ft | 510 kts | 149° |
| 2026-05-05 13:50 | 37.11158 | 24.64706 | 37076 ft | 510 kts | 149° |
| 2026-05-05 13:50 | 37.05123 | 24.69403 | 36704 ft | 510 kts | 149° |
| 2026-05-05 13:51 | 37.02113 | 24.71742 | 36200 ft | 508 kts | 149° |
| 2026-05-05 13:51 | 36.99102 | 24.74078 | 35611 ft | 509 kts | 149° |
| 2026-05-05 13:51 | 36.96087 | 24.76418 | 34998 ft | 509 kts | 149° |
| 2026-05-05 13:51 | 36.93108 | 24.78727 | 34403 ft | 510 kts | 149° |
| 2026-05-05 13:52 | 36.90090 | 24.81064 | 33775 ft | 512 kts | 149° |
| 2026-05-05 13:52 | 36.87058 | 24.83412 | 33105 ft | 513 kts | 149° |
| 2026-05-05 13:52 | 36.84023 | 24.85758 | 32446 ft | 514 kts | 149° |
| 2026-05-05 13:52 | 36.80981 | 24.88109 | 31801 ft | 514 kts | 149° |
| 2026-05-05 13:53 | 36.77936 | 24.90460 | 31189 ft | 514 kts | 149° |
| 2026-05-05 13:53 | 36.74913 | 24.92791 | 30589 ft | 509 kts | 149° |
| 2026-05-05 13:53 | 36.71910 | 24.95105 | 29975 ft | 504 kts | 149° |
| 2026-05-05 13:53 | 36.68938 | 24.97388 | 29288 ft | 501 kts | 149° |
| 2026-05-05 13:54 | 36.65965 | 24.99670 | 28610 ft | 502 kts | 149° |
| 2026-05-05 13:54 | 36.62995 | 25.01947 | 27959 ft | 501 kts | 149° |
| 2026-05-05 13:54 | 36.60033 | 25.04216 | 27319 ft | 497 kts | 149° |
| 2026-05-05 13:54 | 36.57104 | 25.06458 | 26701 ft | 492 kts | 149° |
| 2026-05-05 13:55 | 36.54187 | 25.08641 | 26093 ft | 487 kts | 153° |
| 2026-05-05 13:55 | 36.51066 | 25.10099 | 25320 ft | 484 kts | 170° |
| 2026-05-05 13:55 | 36.47737 | 25.10689 | 24575 ft | 483 kts | 174° |
| 2026-05-05 13:55 | 36.44428 | 25.11434 | 23922 ft | 483 kts | 171° |
| 2026-05-05 13:56 | 36.41142 | 25.12281 | 23199 ft | 482 kts | 170° |
| 2026-05-05 13:56 | 36.37870 | 25.13165 | 22483 ft | 479 kts | 169° |
| 2026-05-05 13:56 | 36.34633 | 25.14063 | 21973 ft | 472 kts | 169° |
| 2026-05-05 13:56 | 36.31453 | 25.14956 | 21467 ft | 465 kts | 169° |
| 2026-05-05 13:57 | 36.28317 | 25.15838 | 20983 ft | 459 kts | 169° |
| 2026-05-05 13:57 | 36.25224 | 25.16709 | 20507 ft | 453 kts | 169° |
| 2026-05-05 13:57 | 36.22176 | 25.17567 | 20032 ft | 447 kts | 169° |
| 2026-05-05 13:57 | 36.19159 | 25.18415 | 19575 ft | 441 kts | 169° |
| 2026-05-05 13:58 | 36.16172 | 25.19255 | 18962 ft | 440 kts | 169° |
| 2026-05-05 13:58 | 36.13186 | 25.20095 | 18313 ft | 440 kts | 169° |
| 2026-05-05 13:58 | 36.10234 | 25.20925 | 17587 ft | 439 kts | 169° |
| 2026-05-05 13:58 | 36.07254 | 25.21762 | 16869 ft | 438 kts | 169° |
| 2026-05-05 13:59 | 36.01310 | 25.23428 | 15484 ft | 436 kts | 168° |
| 2026-05-05 13:59 | 35.98376 | 25.24248 | 14838 ft | 426 kts | 168° |
| 2026-05-05 14:00 | 35.92620 | 25.25857 | 13507 ft | 422 kts | 168° |
| 2026-05-05 14:00 | 35.90744 | 25.26380 | 13025 ft | 413 kts | 168° |
| 2026-05-05 14:00 | 35.87070 | 25.27404 | 12112 ft | 396 kts | 168° |
| 2026-05-05 14:00 | 35.84424 | 25.28141 | 11654 ft | 380 kts | 168° |
| 2026-05-05 14:01 | 35.81963 | 25.28954 | 11339 ft | 362 kts | 164° |
| 2026-05-05 14:01 | 35.79600 | 25.29816 | 11021 ft | 346 kts | 164° |
| 2026-05-05 14:01 | 35.77330 | 25.30629 | 10707 ft | 332 kts | 164° |
| 2026-05-05 14:01 | 35.75151 | 25.31403 | 10386 ft | 320 kts | 164° |
| 2026-05-05 14:02 | 35.73033 | 25.32151 | 10080 ft | 312 kts | 164° |
| 2026-05-05 14:02 | 35.70937 | 25.32891 | 9588 ft | 316 kts | 164° |
| 2026-05-05 14:02 | 35.68809 | 25.33641 | 9138 ft | 318 kts | 164° |
| 2026-05-05 14:02 | 35.66688 | 25.34388 | 8798 ft | 316 kts | 163° |
| 2026-05-05 14:03 | 35.64574 | 25.35131 | 8437 ft | 315 kts | 163° |
| 2026-05-05 14:03 | 35.62472 | 25.35871 | 8082 ft | 313 kts | 163° |
| 2026-05-05 14:03 | 35.60405 | 25.36598 | 7742 ft | 303 kts | 163° |
| 2026-05-05 14:03 | 35.58430 | 25.37291 | 7409 ft | 295 kts | 163° |
| 2026-05-05 14:04 | 35.56478 | 25.37977 | 7077 ft | 289 kts | 162° |
| 2026-05-05 14:04 | 35.54545 | 25.38655 | 6767 ft | 288 kts | 162° |
| 2026-05-05 14:04 | 35.52620 | 25.39330 | 6425 ft | 288 kts | 162° |
| 2026-05-05 14:04 | 35.50709 | 25.39999 | 6076 ft | 281 kts | 162° |
| 2026-05-05 14:05 | 35.48857 | 25.40647 | 5720 ft | 273 kts | 163° |
| 2026-05-05 14:05 | 35.47061 | 25.41276 | 5437 ft | 263 kts | 163° |
| 2026-05-05 14:05 | 35.45336 | 25.41880 | 5182 ft | 254 kts | 163° |
| 2026-05-05 14:05 | 35.43666 | 25.42464 | 4918 ft | 251 kts | 163° |
| 2026-05-05 14:06 | 35.41981 | 25.43053 | 4478 ft | 255 kts | 164° |
| 2026-05-05 14:06 | 35.40211 | 25.43671 | 3993 ft | 275 kts | 165° |
| 2026-05-05 14:06 | 35.38378 | 25.44308 | 3882 ft | 274 kts | 165° |
| 2026-05-05 14:06 | 35.36602 | 25.44760 | 3867 ft | 248 kts | 178° |
| 2026-05-05 14:07 | 35.34962 | 25.44375 | 3381 ft | 237 kts | 214° |
| 2026-05-05 14:07 | 35.33956 | 25.42931 | 3064 ft | 215 kts | 246° |
| 2026-05-05 14:07 | 35.33389 | 25.41306 | 2874 ft | 201 kts | 257° |
| 2026-05-05 14:07 | 35.33135 | 25.39668 | 2679 ft | 193 kts | 266° |
| 2026-05-05 14:08 | 35.32975 | 25.38108 | 2653 ft | 172 kts | 266° |
| 2026-05-05 14:08 | 35.32826 | 25.36728 | 2617 ft | 159 kts | 266° |
| 2026-05-05 14:08 | 35.32763 | 25.35409 | 2398 ft | 156 kts | 277° |
| 2026-05-05 14:08 | 35.32852 | 25.34108 | 2274 ft | 150 kts | 278° |
| 2026-05-05 14:09 | 35.32944 | 25.32842 | 2237 ft | 148 kts | 278° |
| 2026-05-05 14:09 | 35.33027 | 25.31602 | 2226 ft | 145 kts | 279° |
| 2026-05-05 14:09 | 35.33113 | 25.30369 | 2113 ft | 145 kts | 278° |
| 2026-05-05 14:09 | 35.33200 | 25.29140 | 1975 ft | 144 kts | 279° |
| 2026-05-05 14:10 | 35.33288 | 25.27932 | 1746 ft | 141 kts | 278° |
| 2026-05-05 14:10 | 35.33373 | 25.26727 | 1442 ft | 144 kts | 280° |
| 2026-05-05 14:10 | 35.33447 | 25.25508 | 1170 ft | 145 kts | 278° |
| 2026-05-05 14:10 | 35.33533 | 25.24286 | 940 ft | 143 kts | 279° |
| 2026-05-05 14:11 | 35.33620 | 25.23087 | 732 ft | 141 kts | 278° |
| 2026-05-05 14:11 | 35.33702 | 25.21891 | 590 ft | 140 kts | 277° |
| 2026-05-05 14:11 | 35.33777 | 25.20707 | 403 ft | 139 kts | 280° |
| 2026-05-05 14:11 | 35.33865 | 25.19522 | 195 ft | 139 kts | 280° |
| 2026-05-05 14:12 | 35.33952 | 25.18391 | 94 ft | 120 kts | 276° |
| 2026-05-05 14:12 | 35.34001 | 25.17653 | 94 ft | 65 kts | 274° |
| 2026-05-05 14:12 | 35.34030 | 25.17249 | 95 ft | 32 kts | 271° |
| 2026-05-05 14:12 | 35.33987 | 25.17088 | 94 ft | 10 kts | 245° |
| 2026-05-05 14:13 | 35.33953 | 25.17049 | 92 ft | 4 kts | 159° |
| 2026-05-05 14:13 | 35.33942 | 25.17085 | 94 ft | 5 kts | 98° |
| 2026-05-05 14:13 | 35.33937 | 25.17144 | 93 ft | 10 kts | 95° |
| 2026-05-05 14:13 | 35.33929 | 25.17261 | 93 ft | 16 kts | 95° |
| 2026-05-05 14:14 | 35.33919 | 25.17402 | 93 ft | 17 kts | 95° |
| 2026-05-05 14:14 | 35.33903 | 25.17490 | 94 ft | 8 kts | 141° |
| 2026-05-05 14:14 | 35.33847 | 25.17496 | 96 ft | 9 kts | 185° |
| 2026-05-05 14:14 | 35.33804 | 25.17483 | 93 ft | 4 kts | 235° |
| 2026-05-05 14:15 | 35.33804 | 25.17447 | 93 ft | 5 kts | 273° |
| 2026-05-05 14:15 | 35.33819 | 25.17417 | 94 ft | 2 kts | 316° |
| 2026-05-05 14:15 | 35.33823 | 25.17413 | 97 ft | 0 kts | 317° |